Terminal Aerodrome Forecast
Issued by NWS Mt. Holly, NJ

Home | Current Version | Previous Version | Text Only | Print | Product List | Glossary On
Versions: 1 2 3 4 5 6 7 8 9 10 11 12 13 14 15 16 17 18 19 20
000
FTUS41 KPHI 281723
TAFTTN
TAF
KTTN 281723Z 2818/2918 20005KT P6SM SCT050 BKN250
      TEMPO 2819/2823 VRB15G30KT 4SM TSRA BKN035CB
     FM282300 20004KT P6SM BKN050
      TEMPO 2823/2902 4SM TSRA BKN035CB
     FM290200 VRB03KT P6SM OVC050
      TEMPO 2904/2906 4SM -SHRA BR OVC025
     FM290600 10005KT 4SM SHRA BR OVC015
     FM291000 12006KT 2SM +SHRA BR OVC015
     FM291400 28009KT P6SM VCSH OVC025
      TEMPO 2914/2916 4SM -SHRA
     FM291600 30010G16KT P6SM BKN050=

USA.gov is the U.S. government's official web portal to all federal, state and local government web resources and services.